sensor_id;sensor_type;location;lat;lon;timestamp;temperature;humidity
46117;DHT22;32591;48.102;11.772;2022-09-13T00:02:16;12.70;99.90
46117;DHT22;32591;48.102;11.772;2022-09-13T00:04:43;12.70;99.90
46117;DHT22;32591;48.102;11.772;2022-09-13T00:07:10;12.70;99.90
46117;DHT22;32591;48.102;11.772;2022-09-13T00:09:38;12.70;99.90
46117;DHT22;32591;48.102;11.772;2022-09-13T00:12:05;12.60;99.90
46117;DHT22;32591;48.102;11.772;2022-09-13T00:14:32;12.60;99.90
46117;DHT22;32591;48.102;11.772;2022-09-13T00:16:59;12.60;99.90
46117;DHT22;32591;48.102;11.772;2022-09-13T00:19:26;12.60;99.90
46117;DHT22;32591;48.102;11.772;2022-09-13T00:21:53;12.50;99.90
46117;DHT22;32591;48.102;11.772;2022-09-13T00:24:20;12.50;99.90
46117;DHT22;32591;48.102;11.772;2022-09-13T00:26:49;12.50;99.90
46117;DHT22;32591;48.102;11.772;2022-09-13T00:29:15;12.50;99.90
46117;DHT22;32591;48.102;11.772;2022-09-13T00:31:42;12.50;99.90
46117;DHT22;32591;48.102;11.772;2022-09-13T00:34:09;12.50;99.90
46117;DHT22;32591;48.102;11.772;2022-09-13T00:36:36;12.50;99.90
46117;DHT22;32591;48.102;11.772;2022-09-13T00:39:03;12.50;99.90
46117;DHT22;32591;48.102;11.772;2022-09-13T00:41:30;12.40;99.90
46117;DHT22;32591;48.102;11.772;2022-09-13T00:44:00;12.40;99.90
46117;DHT22;32591;48.102;11.772;2022-09-13T00:46:33;12.40;99.90
46117;DHT22;32591;48.102;11.772;2022-09-13T00:49:08;12.40;99.90
46117;DHT22;32591;48.102;11.772;2022-09-13T00:51:40;12.40;99.90
46117;DHT22;32591;48.102;11.772;2022-09-13T00:54:08;12.50;99.90
46117;DHT22;32591;48.102;11.772;2022-09-13T00:56:40;12.50;99.90
46117;DHT22;32591;48.102;11.772;2022-09-13T00:59:12;12.40;99.90
46117;DHT22;32591;48.102;11.772;2022-09-13T01:01:47;12.40;99.90
46117;DHT22;32591;48.102;11.772;2022-09-13T01:04:18;12.50;99.90
46117;DHT22;32591;48.102;11.772;2022-09-13T01:06:47;12.40;99.90
46117;DHT22;32591;48.102;11.772;2022-09-13T01:09:14;12.50;99.90
46117;DHT22;32591;48.102;11.772;2022-09-13T01:11:45;12.50;99.90
46117;DHT22;32591;48.102;11.772;2022-09-13T01:14:17;12.50;99.90
46117;DHT22;32591;48.102;11.772;2022-09-13T01:16:45;12.50;99.90
46117;DHT22;32591;48.102;11.772;2022-09-13T01:19:13;12.40;99.90
46117;DHT22;32591;48.102;11.772;2022-09-13T01:28:11;12.30;99.90
46117;DHT22;32591;48.102;11.772;2022-09-13T01:30:50;12.30;99.90
46117;DHT22;32591;48.102;11.772;2022-09-13T01:33:31;12.20;99.90
46117;DHT22;32591;48.102;11.772;2022-09-13T01:36:18;12.20;99.90
46117;DHT22;32591;48.102;11.772;2022-09-13T01:39:02;12.20;99.90
46117;DHT22;32591;48.102;11.772;2022-09-13T01:41:47;12.30;99.90
46117;DHT22;32591;48.102;11.772;2022-09-13T01:44:29;12.30;99.90
46117;DHT22;32591;48.102;11.772;2022-09-13T01:47:10;12.20;99.90
46117;DHT22;32591;48.102;11.772;2022-09-13T01:49:49;12.30;99.90
46117;DHT22;32591;48.102;11.772;2022-09-13T01:52:24;12.20;99.90
46117;DHT22;32591;48.102;11.772;2022-09-13T01:55:02;12.20;99.90
46117;DHT22;32591;48.102;11.772;2022-09-13T01:57:34;12.20;99.90
46117;DHT22;32591;48.102;11.772;2022-09-13T02:00:10;12.20;99.90
46117;DHT22;32591;48.102;11.772;2022-09-13T02:02:42;12.10;99.90
46117;DHT22;32591;48.102;11.772;2022-09-13T02:05:15;12.10;99.90
46117;DHT22;32591;48.102;11.772;2022-09-13T02:07:49;12.20;99.90
46117;DHT22;32591;48.102;11.772;2022-09-13T02:10:22;12.20;99.90
46117;DHT22;32591;48.102;11.772;2022-09-13T02:12:52;12.10;99.90
46117;DHT22;32591;48.102;11.772;2022-09-13T02:15:22;12.20;99.90
46117;DHT22;32591;48.102;11.772;2022-09-13T02:17:59;12.20;99.90
46117;DHT22;32591;48.102;11.772;2022-09-13T02:20:32;12.20;99.90
46117;DHT22;32591;48.102;11.772;2022-09-13T02:23:02;12.20;99.90
46117;DHT22;32591;48.102;11.772;2022-09-13T02:25:32;12.20;99.90
46117;DHT22;32591;48.102;11.772;2022-09-13T02:28:04;12.10;99.90
46117;DHT22;32591;48.102;11.772;2022-09-13T02:30:37;12.10;99.90
46117;DHT22;32591;48.102;11.772;2022-09-13T02:33:10;12.00;99.90
46117;DHT22;32591;48.102;11.772;2022-09-13T02:35:43;12.00;99.90
46117;DHT22;32591;48.102;11.772;2022-09-13T02:38:16;12.10;99.90
46117;DHT22;32591;48.102;11.772;2022-09-13T02:40:54;12.00;99.90
46117;DHT22;32591;48.102;11.772;2022-09-13T02:43:28;12.00;99.90
46117;DHT22;32591;48.102;11.772;2022-09-13T02:46:05;12.00;99.90
46117;DHT22;32591;48.102;11.772;2022-09-13T02:48:47;12.00;99.90
46117;DHT22;32591;48.102;11.772;2022-09-13T02:51:21;12.00;99.90
46117;DHT22;32591;48.102;11.772;2022-09-13T02:53:55;11.90;99.90
46117;DHT22;32591;48.102;11.772;2022-09-13T02:56:36;11.90;99.90
46117;DHT22;32591;48.102;11.772;2022-09-13T02:59:14;11.90;99.90
46117;DHT22;32591;48.102;11.772;2022-09-13T03:01:45;11.90;99.90
46117;DHT22;32591;48.102;11.772;2022-09-13T03:04:15;11.90;99.90
46117;DHT22;32591;48.102;11.772;2022-09-13T03:06:42;11.80;99.90
46117;DHT22;32591;48.102;11.772;2022-09-13T03:09:10;11.90;99.90
46117;DHT22;32591;48.102;11.772;2022-09-13T03:11:55;11.80;99.90
46117;DHT22;32591;48.102;11.772;2022-09-13T03:14:39;11.80;99.90
46117;DHT22;32591;48.102;11.772;2022-09-13T03:17:14;11.80;99.90
46117;DHT22;32591;48.102;11.772;2022-09-13T03:20:02;11.80;99.90
46117;DHT22;32591;48.102;11.772;2022-09-13T03:22:53;11.70;99.90
46117;DHT22;32591;48.102;11.772;2022-09-13T03:25:40;11.70;99.90
46117;DHT22;32591;48.102;11.772;2022-09-13T03:28:22;11.70;99.90
46117;DHT22;32591;48.102;11.772;2022-09-13T03:30:57;11.60;99.90
46117;DHT22;32591;48.102;11.772;2022-09-13T03:33:30;11.60;99.90
46117;DHT22;32591;48.102;11.772;2022-09-13T03:36:08;11.60;99.90
46117;DHT22;32591;48.102;11.772;2022-09-13T03:38:40;11.60;99.90
46117;DHT22;32591;48.102;11.772;2022-09-13T03:41:14;11.50;99.90
46117;DHT22;32591;48.102;11.772;2022-09-13T03:43:47;11.50;99.90
46117;DHT22;32591;48.102;11.772;2022-09-13T03:46:18;11.50;99.90
46117;DHT22;32591;48.102;11.772;2022-09-13T03:48:48;11.50;99.90
46117;DHT22;32591;48.102;11.772;2022-09-13T03:51:17;11.50;99.90
46117;DHT22;32591;48.102;11.772;2022-09-13T03:53:50;11.50;99.90
46117;DHT22;32591;48.102;11.772;2022-09-13T03:56:21;11.50;99.90
46117;DHT22;32591;48.102;11.772;2022-09-13T03:58:48;11.50;99.90
46117;DHT22;32591;48.102;11.772;2022-09-13T04:01:18;11.40;99.90
46117;DHT22;32591;48.102;11.772;2022-09-13T04:03:47;11.40;99.90
46117;DHT22;32591;48.102;11.772;2022-09-13T04:06:15;11.40;99.90
46117;DHT22;32591;48.102;11.772;2022-09-13T04:08:43;11.40;99.90
46117;DHT22;32591;48.102;11.772;2022-09-13T04:11:10;11.40;99.90
46117;DHT22;32591;48.102;11.772;2022-09-13T04:13:37;11.30;99.90
46117;DHT22;32591;48.102;11.772;2022-09-13T04:16:06;11.30;99.90
46117;DHT22;32591;48.102;11.772;2022-09-13T04:18:34;11.30;99.90
46117;DHT22;32591;48.102;11.772;2022-09-13T04:21:01;11.30;99.90
46117;DHT22;32591;48.102;11.772;2022-09-13T04:23:30;11.30;99.90
46117;DHT22;32591;48.102;11.772;2022-09-13T04:26:01;11.30;99.90
46117;DHT22;32591;48.102;11.772;2022-09-13T04:28:28;11.30;99.90
46117;DHT22;32591;48.102;11.772;2022-09-13T04:30:55;11.30;99.90
46117;DHT22;32591;48.102;11.772;2022-09-13T04:33:22;11.40;99.90
46117;DHT22;32591;48.102;11.772;2022-09-13T04:35:53;11.30;99.90
46117;DHT22;32591;48.102;11.772;2022-09-13T04:38:22;11.30;99.90
46117;DHT22;32591;48.102;11.772;2022-09-13T04:40:54;11.30;99.90
46117;DHT22;32591;48.102;11.772;2022-09-13T04:43:22;11.40;99.90
46117;DHT22;32591;48.102;11.772;2022-09-13T04:45:50;11.40;99.90
46117;DHT22;32591;48.102;11.772;2022-09-13T04:48:17;11.30;99.90
46117;DHT22;32591;48.102;11.772;2022-09-13T04:50:44;11.30;99.90
46117;DHT22;32591;48.102;11.772;2022-09-13T04:53:12;11.30;99.90
46117;DHT22;32591;48.102;11.772;2022-09-13T04:55:39;11.30;99.90
46117;DHT22;32591;48.102;11.772;2022-09-13T04:58:10;11.30;99.90
46117;DHT22;32591;48.102;11.772;2022-09-13T05:00:37;11.40;99.90
46117;DHT22;32591;48.102;11.772;2022-09-13T05:03:04;11.40;99.90
46117;DHT22;32591;48.102;11.772;2022-09-13T05:05:31;11.40;99.90
46117;DHT22;32591;48.102;11.772;2022-09-13T05:07:58;11.40;99.90
46117;DHT22;32591;48.102;11.772;2022-09-13T05:10:25;11.40;99.90
46117;DHT22;32591;48.102;11.772;2022-09-13T05:12:52;11.50;99.90
46117;DHT22;32591;48.102;11.772;2022-09-13T05:15:21;11.40;99.90
46117;DHT22;32591;48.102;11.772;2022-09-13T05:17:48;11.60;99.90
46117;DHT22;32591;48.102;11.772;2022-09-13T05:20:15;11.60;99.90
46117;DHT22;32591;48.102;11.772;2022-09-13T05:22:43;11.60;99.90
46117;DHT22;32591;48.102;11.772;2022-09-13T05:25:10;11.70;99.90
46117;DHT22;32591;48.102;11.772;2022-09-13T05:27:37;11.60;99.90
46117;DHT22;32591;48.102;11.772;2022-09-13T05:30:05;11.70;99.90
46117;DHT22;32591;48.102;11.772;2022-09-13T05:32:34;11.80;99.90
46117;DHT22;32591;48.102;11.772;2022-09-13T05:35:01;11.90;99.90
46117;DHT22;32591;48.102;11.772;2022-09-13T05:37:27;11.90;99.90
46117;DHT22;32591;48.102;11.772;2022-09-13T05:39:55;11.90;99.90
46117;DHT22;32591;48.102;11.772;2022-09-13T05:42:22;12.00;99.90
46117;DHT22;32591;48.102;11.772;2022-09-13T05:44:49;12.00;99.90
46117;DHT22;32591;48.102;11.772;2022-09-13T05:47:16;12.10;99.90
46117;DHT22;32591;48.102;11.772;2022-09-13T05:49:45;12.10;99.90
46117;DHT22;32591;48.102;11.772;2022-09-13T05:52:12;12.20;99.90
46117;DHT22;32591;48.102;11.772;2022-09-13T05:54:39;12.20;99.90
46117;DHT22;32591;48.102;11.772;2022-09-13T05:57:06;12.30;99.90
46117;DHT22;32591;48.102;11.772;2022-09-13T05:59:32;12.30;99.90
46117;DHT22;32591;48.102;11.772;2022-09-13T06:01:59;12.40;99.90
46117;DHT22;32591;48.102;11.772;2022-09-13T06:04:26;12.50;99.90
46117;DHT22;32591;48.102;11.772;2022-09-13T06:06:55;12.50;99.90
46117;DHT22;32591;48.102;11.772;2022-09-13T06:09:22;12.60;99.90
46117;DHT22;32591;48.102;11.772;2022-09-13T06:11:49;12.70;99.90
46117;DHT22;32591;48.102;11.772;2022-09-13T06:14:15;12.80;99.90
46117;DHT22;32591;48.102;11.772;2022-09-13T06:16:43;13.00;99.90
46117;DHT22;32591;48.102;11.772;2022-09-13T06:19:10;13.00;99.90
46117;DHT22;32591;48.102;11.772;2022-09-13T06:21:36;13.20;99.90
46117;DHT22;32591;48.102;11.772;2022-09-13T06:24:06;13.30;99.90
46117;DHT22;32591;48.102;11.772;2022-09-13T06:26:32;13.30;99.90
46117;DHT22;32591;48.102;11.772;2022-09-13T06:28:59;13.40;99.90
46117;DHT22;32591;48.102;11.772;2022-09-13T06:31:27;13.50;99.90
46117;DHT22;32591;48.102;11.772;2022-09-13T06:33:56;13.60;99.90
46117;DHT22;32591;48.102;11.772;2022-09-13T06:36:23;13.70;99.90
46117;DHT22;32591;48.102;11.772;2022-09-13T06:38:51;13.80;99.90
46117;DHT22;32591;48.102;11.772;2022-09-13T06:41:20;13.80;99.90
46117;DHT22;32591;48.102;11.772;2022-09-13T06:43:52;14.00;99.90
46117;DHT22;32591;48.102;11.772;2022-09-13T06:46:20;14.00;99.90
46117;DHT22;32591;48.102;11.772;2022-09-13T06:48:47;14.10;99.90
46117;DHT22;32591;48.102;11.772;2022-09-13T06:51:16;14.20;99.90
46117;DHT22;32591;48.102;11.772;2022-09-13T06:53:44;14.30;99.90
46117;DHT22;32591;48.102;11.772;2022-09-13T06:56:15;14.40;99.90
46117;DHT22;32591;48.102;11.772;2022-09-13T06:58:45;14.60;99.90
46117;DHT22;32591;48.102;11.772;2022-09-13T07:01:15;14.70;99.90
46117;DHT22;32591;48.102;11.772;2022-09-13T07:03:44;14.80;99.90
46117;DHT22;32591;48.102;11.772;2022-09-13T07:06:13;15.00;99.90
46117;DHT22;32591;48.102;11.772;2022-09-13T07:08:42;15.10;99.90
46117;DHT22;32591;48.102;11.772;2022-09-13T07:11:11;15.20;99.90
46117;DHT22;32591;48.102;11.772;2022-09-13T07:13:39;15.30;99.90
46117;DHT22;32591;48.102;11.772;2022-09-13T07:16:10;15.40;99.90
46117;DHT22;32591;48.102;11.772;2022-09-13T07:18:37;15.60;99.90
46117;DHT22;32591;48.102;11.772;2022-09-13T07:21:05;15.70;99.90
46117;DHT22;32591;48.102;11.772;2022-09-13T07:23:35;15.80;99.90
46117;DHT22;32591;48.102;11.772;2022-09-13T07:26:04;15.90;99.90
46117;DHT22;32591;48.102;11.772;2022-09-13T07:28:34;16.10;99.90
46117;DHT22;32591;48.102;11.772;2022-09-13T07:31:08;16.20;99.90
46117;DHT22;32591;48.102;11.772;2022-09-13T07:33:36;16.40;99.50
46117;DHT22;32591;48.102;11.772;2022-09-13T07:36:04;16.60;98.60
46117;DHT22;32591;48.102;11.772;2022-09-13T07:38:35;16.80;97.90
46117;DHT22;32591;48.102;11.772;2022-09-13T07:41:04;16.90;97.70
46117;DHT22;32591;48.102;11.772;2022-09-13T07:43:34;17.10;97.40
46117;DHT22;32591;48.102;11.772;2022-09-13T07:46:03;17.30;97.20
46117;DHT22;32591;48.102;11.772;2022-09-13T07:48:35;17.40;97.00
46117;DHT22;32591;48.102;11.772;2022-09-13T07:51:05;17.50;96.70
46117;DHT22;32591;48.102;11.772;2022-09-13T07:53:34;17.60;96.90
46117;DHT22;32591;48.102;11.772;2022-09-13T07:56:04;17.80;96.00
46117;DHT22;32591;48.102;11.772;2022-09-13T07:58:33;17.90;96.20
46117;DHT22;32591;48.102;11.772;2022-09-13T08:01:05;18.10;95.50
46117;DHT22;32591;48.102;11.772;2022-09-13T08:03:35;18.20;95.10
46117;DHT22;32591;48.102;11.772;2022-09-13T08:06:04;18.40;94.60
46117;DHT22;32591;48.102;11.772;2022-09-13T08:08:32;18.50;93.90
46117;DHT22;32591;48.102;11.772;2022-09-13T08:11:00;18.60;94.20
46117;DHT22;32591;48.102;11.772;2022-09-13T08:13:28;18.80;94.00
46117;DHT22;32591;48.102;11.772;2022-09-13T08:16:00;19.00;93.20
46117;DHT22;32591;48.102;11.772;2022-09-13T08:18:28;19.20;93.20
46117;DHT22;32591;48.102;11.772;2022-09-13T08:20:57;19.40;93.00
46117;DHT22;32591;48.102;11.772;2022-09-13T08:23:24;19.50;92.10
46117;DHT22;32591;48.102;11.772;2022-09-13T08:25:52;19.70;91.60
46117;DHT22;32591;48.102;11.772;2022-09-13T08:28:21;20.00;90.70
46117;DHT22;32591;48.102;11.772;2022-09-13T08:30:48;20.20;90.60
46117;DHT22;32591;48.102;11.772;2022-09-13T08:33:15;20.20;89.50
46117;DHT22;32591;48.102;11.772;2022-09-13T08:35:49;20.30;89.10
46117;DHT22;32591;48.102;11.772;2022-09-13T08:38:18;20.40;90.00
46117;DHT22;32591;48.102;11.772;2022-09-13T08:40:50;20.60;82.90
46117;DHT22;32591;48.102;11.772;2022-09-13T08:43:25;20.60;84.00
46117;DHT22;32591;48.102;11.772;2022-09-13T08:46:04;20.60;83.60
46117;DHT22;32591;48.102;11.772;2022-09-13T08:48:36;20.50;83.00
46117;DHT22;32591;48.102;11.772;2022-09-13T08:51:08;20.50;86.50
46117;DHT22;32591;48.102;11.772;2022-09-13T08:53:48;20.60;83.00
46117;DHT22;32591;48.102;11.772;2022-09-13T08:56:21;20.70;82.20
46117;DHT22;32591;48.102;11.772;2022-09-13T08:59:00;20.90;85.50
46117;DHT22;32591;48.102;11.772;2022-09-13T09:01:49;21.00;85.00
46117;DHT22;32591;48.102;11.772;2022-09-13T09:04:32;21.10;80.90
46117;DHT22;32591;48.102;11.772;2022-09-13T09:07:05;21.30;81.50
46117;DHT22;32591;48.102;11.772;2022-09-13T09:09:41;21.30;80.90
46117;DHT22;32591;48.102;11.772;2022-09-13T09:12:16;21.40;81.00
46117;DHT22;32591;48.102;11.772;2022-09-13T09:14:56;21.50;80.50
46117;DHT22;32591;48.102;11.772;2022-09-13T09:17:30;21.60;79.70
46117;DHT22;32591;48.102;11.772;2022-09-13T09:20:13;21.70;79.70
46117;DHT22;32591;48.102;11.772;2022-09-13T09:22:46;21.70;78.10
46117;DHT22;32591;48.102;11.772;2022-09-13T09:25:15;21.70;78.90
46117;DHT22;32591;48.102;11.772;2022-09-13T09:27:42;21.80;78.40
46117;DHT22;32591;48.102;11.772;2022-09-13T09:30:12;21.90;78.40
46117;DHT22;32591;48.102;11.772;2022-09-13T09:32:48;22.00;76.90
46117;DHT22;32591;48.102;11.772;2022-09-13T09:35:30;22.10;76.50
46117;DHT22;32591;48.102;11.772;2022-09-13T09:38:26;22.10;77.20
46117;DHT22;32591;48.102;11.772;2022-09-13T09:41:02;22.40;75.90
46117;DHT22;32591;48.102;11.772;2022-09-13T09:43:34;22.60;75.30
46117;DHT22;32591;48.102;11.772;2022-09-13T09:46:06;22.60;75.90
46117;DHT22;32591;48.102;11.772;2022-09-13T09:48:39;22.60;76.70
46117;DHT22;32591;48.102;11.772;2022-09-13T09:51:11;22.50;75.90
46117;DHT22;32591;48.102;11.772;2022-09-13T09:53:43;22.50;74.70
46117;DHT22;32591;48.102;11.772;2022-09-13T09:56:20;22.70;75.70
46117;DHT22;32591;48.102;11.772;2022-09-13T09:58:50;22.90;73.60
46117;DHT22;32591;48.102;11.772;2022-09-13T10:01:25;23.00;74.50
46117;DHT22;32591;48.102;11.772;2022-09-13T10:04:17;23.10;72.80
46117;DHT22;32591;48.102;11.772;2022-09-13T10:06:45;23.20;73.50
46117;DHT22;32591;48.102;11.772;2022-09-13T10:09:15;23.30;74.30
46117;DHT22;32591;48.102;11.772;2022-09-13T10:11:47;23.40;74.20
46117;DHT22;32591;48.102;11.772;2022-09-13T10:14:36;23.50;72.80
46117;DHT22;32591;48.102;11.772;2022-09-13T10:17:23;23.60;72.20
46117;DHT22;32591;48.102;11.772;2022-09-13T10:19:54;23.80;71.50
46117;DHT22;32591;48.102;11.772;2022-09-13T10:22:24;23.90;74.10
46117;DHT22;32591;48.102;11.772;2022-09-13T10:24:51;24.00;72.90
46117;DHT22;32591;48.102;11.772;2022-09-13T10:27:25;24.00;72.90
46117;DHT22;32591;48.102;11.772;2022-09-13T10:29:57;24.00;73.20
46117;DHT22;32591;48.102;11.772;2022-09-13T10:32:25;24.10;71.60
46117;DHT22;32591;48.102;11.772;2022-09-13T10:34:54;24.20;71.20
46117;DHT22;32591;48.102;11.772;2022-09-13T10:37:25;24.30;70.90
46117;DHT22;32591;48.102;11.772;2022-09-13T10:40:00;24.40;71.70
46117;DHT22;32591;48.102;11.772;2022-09-13T10:42:32;24.40;70.70
46117;DHT22;32591;48.102;11.772;2022-09-13T10:45:01;24.20;69.40
46117;DHT22;32591;48.102;11.772;2022-09-13T10:47:32;24.20;70.50
46117;DHT22;32591;48.102;11.772;2022-09-13T10:50:21;24.30;69.10
46117;DHT22;32591;48.102;11.772;2022-09-13T10:52:51;24.30;69.10
46117;DHT22;32591;48.102;11.772;2022-09-13T10:55:30;24.40;70.50
46117;DHT22;32591;48.102;11.772;2022-09-13T10:58:15;24.40;67.70
46117;DHT22;32591;48.102;11.772;2022-09-13T11:01:12;24.40;69.00
46117;DHT22;32591;48.102;11.772;2022-09-13T11:07:24;24.50;68.80
46117;DHT22;32591;48.102;11.772;2022-09-13T11:10:02;24.40;67.90
46117;DHT22;32591;48.102;11.772;2022-09-13T11:12:39;24.60;67.30
46117;DHT22;32591;48.102;11.772;2022-09-13T11:15:25;24.70;68.10
46117;DHT22;32591;48.102;11.772;2022-09-13T11:18:21;24.90;64.00
46117;DHT22;32591;48.102;11.772;2022-09-13T11:21:05;25.20;66.30
46117;DHT22;32591;48.102;11.772;2022-09-13T11:26:52;25.30;65.20
46117;DHT22;32591;48.102;11.772;2022-09-13T11:29:32;25.30;67.50
46117;DHT22;32591;48.102;11.772;2022-09-13T11:32:16;25.30;65.30
46117;DHT22;32591;48.102;11.772;2022-09-13T11:35:08;25.20;64.30
46117;DHT22;32591;48.102;11.772;2022-09-13T11:37:49;25.20;63.50
46117;DHT22;32591;48.102;11.772;2022-09-13T11:40:31;25.30;64.20
46117;DHT22;32591;48.102;11.772;2022-09-13T11:43:14;25.30;64.30
46117;DHT22;32591;48.102;11.772;2022-09-13T11:45:58;25.40;63.10
46117;DHT22;32591;48.102;11.772;2022-09-13T11:48:41;25.40;66.10
46117;DHT22;32591;48.102;11.772;2022-09-13T11:51:24;25.50;65.10
46117;DHT22;32591;48.102;11.772;2022-09-13T11:54:07;25.50;63.70
46117;DHT22;32591;48.102;11.772;2022-09-13T11:56:42;25.60;62.60
46117;DHT22;32591;48.102;11.772;2022-09-13T11:59:19;25.60;64.60
46117;DHT22;32591;48.102;11.772;2022-09-13T12:01:53;25.50;64.70
46117;DHT22;32591;48.102;11.772;2022-09-13T12:04:27;25.50;63.10
46117;DHT22;32591;48.102;11.772;2022-09-13T12:07:00;25.40;62.10
46117;DHT22;32591;48.102;11.772;2022-09-13T12:09:33;25.30;63.30
46117;DHT22;32591;48.102;11.772;2022-09-13T12:12:04;25.30;63.00
46117;DHT22;32591;48.102;11.772;2022-09-13T12:14:40;25.30;63.90
46117;DHT22;32591;48.102;11.772;2022-09-13T12:17:12;25.30;62.70
46117;DHT22;32591;48.102;11.772;2022-09-13T12:19:47;25.40;61.90
46117;DHT22;32591;48.102;11.772;2022-09-13T12:22:19;25.50;61.30
46117;DHT22;32591;48.102;11.772;2022-09-13T12:24:50;25.60;61.20
46117;DHT22;32591;48.102;11.772;2022-09-13T12:27:24;25.60;62.10
46117;DHT22;32591;48.102;11.772;2022-09-13T12:29:56;25.70;61.70
46117;DHT22;32591;48.102;11.772;2022-09-13T12:32:30;25.70;62.30
46117;DHT22;32591;48.102;11.772;2022-09-13T12:35:01;25.80;62.10
46117;DHT22;32591;48.102;11.772;2022-09-13T12:37:58;26.00;61.00
46117;DHT22;32591;48.102;11.772;2022-09-13T12:40:58;26.10;60.80
46117;DHT22;32591;48.102;11.772;2022-09-13T12:46:50;26.20;60.90
46117;DHT22;32591;48.102;11.772;2022-09-13T12:49:57;26.30;60.40
46117;DHT22;32591;48.102;11.772;2022-09-13T12:52:39;26.50;61.20
46117;DHT22;32591;48.102;11.772;2022-09-13T12:55:34;26.70;59.60
46117;DHT22;32591;48.102;11.772;2022-09-13T12:58:50;26.80;57.80
46117;DHT22;32591;48.102;11.772;2022-09-13T13:01:26;26.70;58.40
46117;DHT22;32591;48.102;11.772;2022-09-13T13:03:58;26.70;58.30
46117;DHT22;32591;48.102;11.772;2022-09-13T13:06:32;26.70;57.50
46117;DHT22;32591;48.102;11.772;2022-09-13T13:09:04;26.80;59.30
46117;DHT22;32591;48.102;11.772;2022-09-13T13:11:43;27.00;60.50
46117;DHT22;32591;48.102;11.772;2022-09-13T13:17:34;26.90;57.40
46117;DHT22;32591;48.102;11.772;2022-09-13T13:20:39;27.00;58.40
46117;DHT22;32591;48.102;11.772;2022-09-13T13:23:24;27.10;55.80
46117;DHT22;32591;48.102;11.772;2022-09-13T13:26:03;27.10;58.50
46117;DHT22;32591;48.102;11.772;2022-09-13T13:29:13;27.30;56.60
46117;DHT22;32591;48.102;11.772;2022-09-13T13:31:44;27.30;55.90
46117;DHT22;32591;48.102;11.772;2022-09-13T13:34:33;27.40;56.80
46117;DHT22;32591;48.102;11.772;2022-09-13T13:37:04;27.50;55.20
46117;DHT22;32591;48.102;11.772;2022-09-13T13:40:11;27.50;57.10
46117;DHT22;32591;48.102;11.772;2022-09-13T13:42:46;27.60;57.00
46117;DHT22;32591;48.102;11.772;2022-09-13T13:45:17;27.80;56.70
46117;DHT22;32591;48.102;11.772;2022-09-13T13:48:12;27.90;56.80
46117;DHT22;32591;48.102;11.772;2022-09-13T13:51:17;27.70;56.80
46117;DHT22;32591;48.102;11.772;2022-09-13T13:53:52;27.80;54.70
46117;DHT22;32591;48.102;11.772;2022-09-13T13:56:33;27.90;56.50
46117;DHT22;32591;48.102;11.772;2022-09-13T13:59:20;28.00;55.80
46117;DHT22;32591;48.102;11.772;2022-09-13T14:01:52;28.20;56.50
46117;DHT22;32591;48.102;11.772;2022-09-13T14:04:58;28.20;54.40
46117;DHT22;32591;48.102;11.772;2022-09-13T14:07:59;28.30;56.50
46117;DHT22;32591;48.102;11.772;2022-09-13T14:10:41;28.40;54.30
46117;DHT22;32591;48.102;11.772;2022-09-13T14:13:31;28.40;53.10
46117;DHT22;32591;48.102;11.772;2022-09-13T14:16:12;28.20;53.20
46117;DHT22;32591;48.102;11.772;2022-09-13T14:18:56;28.10;56.50
46117;DHT22;32591;48.102;11.772;2022-09-13T14:21:32;28.00;55.30
46117;DHT22;32591;48.102;11.772;2022-09-13T14:24:16;27.90;54.40
46117;DHT22;32591;48.102;11.772;2022-09-13T14:26:45;27.60;54.60
46117;DHT22;32591;48.102;11.772;2022-09-13T14:29:17;27.40;55.70
46117;DHT22;32591;48.102;11.772;2022-09-13T14:31:46;27.40;56.80
46117;DHT22;32591;48.102;11.772;2022-09-13T14:34:21;27.30;53.80
46117;DHT22;32591;48.102;11.772;2022-09-13T14:36:54;27.30;55.60
46117;DHT22;32591;48.102;11.772;2022-09-13T14:39:23;27.20;55.80
46117;DHT22;32591;48.102;11.772;2022-09-13T14:41:58;27.10;55.10
46117;DHT22;32591;48.102;11.772;2022-09-13T14:44:28;27.00;56.90
46117;DHT22;32591;48.102;11.772;2022-09-13T14:47:04;27.00;58.40
46117;DHT22;32591;48.102;11.772;2022-09-13T14:49:34;27.10;56.50
46117;DHT22;32591;48.102;11.772;2022-09-13T14:52:06;27.10;55.80
46117;DHT22;32591;48.102;11.772;2022-09-13T14:54:38;27.20;57.00
46117;DHT22;32591;48.102;11.772;2022-09-13T14:57:17;27.20;58.10
46117;DHT22;32591;48.102;11.772;2022-09-13T14:59:51;27.10;57.30
46117;DHT22;32591;48.102;11.772;2022-09-13T15:02:23;27.00;55.40
46117;DHT22;32591;48.102;11.772;2022-09-13T15:04:53;27.00;56.30
46117;DHT22;32591;48.102;11.772;2022-09-13T15:07:27;27.10;55.60
46117;DHT22;32591;48.102;11.772;2022-09-13T15:09:57;27.00;55.80
46117;DHT22;32591;48.102;11.772;2022-09-13T15:12:34;27.10;56.50
46117;DHT22;32591;48.102;11.772;2022-09-13T15:15:26;27.20;54.50
46117;DHT22;32591;48.102;11.772;2022-09-13T15:17:59;27.20;55.60
46117;DHT22;32591;48.102;11.772;2022-09-13T15:20:29;27.20;54.60
46117;DHT22;32591;48.102;11.772;2022-09-13T15:23:13;27.10;54.90
46117;DHT22;32591;48.102;11.772;2022-09-13T15:25:47;27.00;56.80
46117;DHT22;32591;48.102;11.772;2022-09-13T15:28:21;27.00;58.20
46117;DHT22;32591;48.102;11.772;2022-09-13T15:30:51;26.70;58.70
46117;DHT22;32591;48.102;11.772;2022-09-13T15:33:25;26.50;59.30
46117;DHT22;32591;48.102;11.772;2022-09-13T15:39:01;26.30;61.10
46117;DHT22;32591;48.102;11.772;2022-09-13T15:41:31;26.20;60.80
46117;DHT22;32591;48.102;11.772;2022-09-13T15:44:00;26.20;62.20
46117;DHT22;32591;48.102;11.772;2022-09-13T15:46:29;26.20;63.00
46117;DHT22;32591;48.102;11.772;2022-09-13T15:48:58;26.20;61.20
46117;DHT22;32591;48.102;11.772;2022-09-13T15:51:26;26.20;61.30
46117;DHT22;32591;48.102;11.772;2022-09-13T15:53:53;26.20;61.60
46117;DHT22;32591;48.102;11.772;2022-09-13T15:56:21;26.20;61.40
46117;DHT22;32591;48.102;11.772;2022-09-13T15:58:52;26.10;62.20
46117;DHT22;32591;48.102;11.772;2022-09-13T16:01:19;26.00;62.40
46117;DHT22;32591;48.102;11.772;2022-09-13T16:03:47;25.90;63.60
46117;DHT22;32591;48.102;11.772;2022-09-13T16:06:15;25.80;64.20
46117;DHT22;32591;48.102;11.772;2022-09-13T16:08:42;25.70;64.10
46117;DHT22;32591;48.102;11.772;2022-09-13T16:11:09;25.60;65.30
46117;DHT22;32591;48.102;11.772;2022-09-13T16:13:36;25.30;63.60
46117;DHT22;32591;48.102;11.772;2022-09-13T16:16:04;25.30;65.70
46117;DHT22;32591;48.102;11.772;2022-09-13T16:18:31;25.30;67.10